Time;durP1;ratioP1;P1;durP2;ratioP2;P2;SDS_P1;SDS_P2;PMS_P1;PMS_P2;Temp;Humidity;BMP_temperature;BMP_pressure;BME280_temperature;BME280_humidity;BME280_pressure;Samples;Min_cycle;Max_cycle;Signal;HPM_P1;HPM_P2
2023/04/25 00:00:10;;;;;;;28.90;4.25;;;;;;;;;;5086872;28;20391;-62
2023/04/25 00:02:36;;;;;;;17.60;3.75;;;;;;;;;;5085791;28;20048;-62
2023/04/25 00:05:04;;;;;;;24.15;4.80;;;;;;;;;;5095097;28;20441;-62
2023/04/25 00:07:32;;;;;;;18.25;3.55;;;;;;;;;;5083362;28;20478;-62
2023/04/25 00:09:58;;;;;;;17.08;3.03;;;;;;;;;;5084566;28;20036;-62
2023/04/25 00:12:24;;;;;;;25.65;4.88;;;;;;;;;;5083734;27;20474;-62
2023/04/25 00:14:51;;;;;;;20.83;3.97;;;;;;;;;;5088371;28;20050;-62
2023/04/25 00:17:17;;;;;;;22.23;3.72;;;;;;;;;;5085102;27;20123;-62
2023/04/25 00:19:44;;;;;;;20.48;3.65;;;;;;;;;;5083647;27;20077;-62
2023/04/25 00:22:11;;;;;;;22.15;3.60;;;;;;;;;;5085984;28;20119;-62
2023/04/25 00:24:37;;;;;;;21.85;3.80;;;;;;;;;;5082371;27;20520;-62
2023/04/25 00:27:04;;;;;;;20.90;3.75;;;;;;;;;;5063147;28;20056;-62
2023/04/25 00:29:30;;;;;;;19.30;3.70;;;;;;;;;;5066730;28;20040;-62
2023/04/25 00:31:56;;;;;;;25.45;4.10;;;;;;;;;;5086566;27;20090;-62
2023/04/25 00:34:22;;;;;;;24.52;4.32;;;;;;;;;;5082811;28;20093;-63
2023/04/25 00:36:48;;;;;;;24.27;4.05;;;;;;;;;;5068831;28;20051;-62
2023/04/25 00:39:14;;;;;;;22.23;3.92;;;;;;;;;;5081941;28;20375;-62
2023/04/25 00:41:41;;;;;;;20.83;4.47;;;;;;;;;;5083278;28;20039;-62
2023/04/25 00:44:11;;;;;;;25.30;4.13;;;;;;;;;;5088501;28;20047;-62
2023/04/25 00:46:37;;;;;;;22.00;3.72;;;;;;;;;;5090175;28;20052;-62
2023/04/25 00:49:03;;;;;;;18.02;4.47;;;;;;;;;;5085148;28;21266;-62
2023/04/25 00:51:31;;;;;;;20.90;4.47;;;;;;;;;;5069078;28;20487;-62
2023/04/25 00:53:57;;;;;;;19.05;4.20;;;;;;;;;;5063541;28;20044;-62
2023/04/25 00:56:23;;;;;;;24.15;4.65;;;;;;;;;;5053746;28;20086;-62
2023/04/25 00:58:50;;;;;;;20.13;3.35;;;;;;;;;;5090927;28;20048;-62
2023/04/25 01:01:16;;;;;;;21.58;3.53;;;;;;;;;;5089301;27;20491;-63
2023/04/25 01:03:43;;;;;;;18.38;4.03;;;;;;;;;;5087073;27;20207;-62
2023/04/25 01:06:10;;;;;;;15.63;3.58;;;;;;;;;;5091969;27;20048;-62
2023/04/25 01:08:37;;;;;;;17.83;3.28;;;;;;;;;;5085417;27;20463;-62
2023/04/25 01:11:04;;;;;;;15.48;3.03;;;;;;;;;;5088373;28;20407;-62
2023/04/25 01:13:31;;;;;;;19.45;3.83;;;;;;;;;;5087145;28;20502;-62
2023/04/25 01:15:58;;;;;;;20.75;4.60;;;;;;;;;;5087053;27;20069;-62
2023/04/25 01:18:24;;;;;;;16.17;3.03;;;;;;;;;;5088690;27;20066;-62
2023/04/25 01:20:52;;;;;;;22.50;3.28;;;;;;;;;;5089708;27;20062;-62
2023/04/25 01:23:19;;;;;;;17.75;3.50;;;;;;;;;;5089921;27;20443;-62
2023/04/25 01:25:46;;;;;;;16.73;3.45;;;;;;;;;;5088031;27;20512;-62
2023/04/25 01:28:12;;;;;;;21.15;2.78;;;;;;;;;;5085653;27;20096;-62
2023/04/25 01:30:39;;;;;;;15.82;3.15;;;;;;;;;;5091548;27;20340;-62
2023/04/25 01:33:05;;;;;;;12.60;1.80;;;;;;;;;;5095941;27;20719;-62
2023/04/25 01:35:32;;;;;;;11.80;2.08;;;;;;;;;;5093240;27;20040;-62
2023/04/25 01:37:58;;;;;;;10.15;2.22;;;;;;;;;;5090586;27;20043;-61
2023/04/25 01:40:25;;;;;;;15.20;2.20;;;;;;;;;;5084802;27;20097;-61
2023/04/25 01:42:51;;;;;;;15.25;3.20;;;;;;;;;;5086109;27;20162;-62
2023/04/25 01:45:18;;;;;;;14.63;2.72;;;;;;;;;;5066036;28;20036;-62
2023/04/25 01:47:48;;;;;;;16.98;3.65;;;;;;;;;;5089184;28;20093;-62
2023/04/25 01:50:15;;;;;;;13.68;2.38;;;;;;;;;;5088815;27;20043;-62
2023/04/25 01:52:41;;;;;;;14.70;2.90;;;;;;;;;;5095492;27;20069;-62
2023/04/25 01:55:07;;;;;;;18.63;3.08;;;;;;;;;;5078578;28;20498;-62
2023/04/25 01:57:33;;;;;;;17.63;3.00;;;;;;;;;;5069773;28;20055;-62
2023/04/25 02:00:00;;;;;;;15.70;3.15;;;;;;;;;;5070932;28;20048;-62
2023/04/25 02:02:27;;;;;;;15.23;2.42;;;;;;;;;;5090146;27;20067;-62
2023/04/25 02:04:54;;;;;;;19.50;2.63;;;;;;;;;;5069663;27;20064;-62
2023/04/25 02:07:20;;;;;;;20.80;2.92;;;;;;;;;;5071034;28;20343;-62
2023/04/25 02:09:46;;;;;;;20.00;3.33;;;;;;;;;;5088037;27;20101;-63
2023/04/25 02:12:12;;;;;;;14.18;3.08;;;;;;;;;;5090082;27;20051;-62
2023/04/25 02:14:38;;;;;;;14.68;3.22;;;;;;;;;;5092078;27;20410;-62
2023/04/25 02:17:05;;;;;;;20.40;3.88;;;;;;;;;;5072583;28;20059;-62
2023/04/25 02:19:31;;;;;;;18.27;3.95;;;;;;;;;;5092280;28;20049;-62
2023/04/25 02:21:58;;;;;;;14.63;3.25;;;;;;;;;;5094645;27;20051;-62
2023/04/25 02:24:24;;;;;;;18.85;3.35;;;;;;;;;;5086554;28;20596;-62
2023/04/25 02:26:50;;;;;;;14.75;2.72;;;;;;;;;;5086078;27;20060;-62
2023/04/25 02:29:16;;;;;;;30.60;3.05;;;;;;;;;;5072003;27;20044;-62
2023/04/25 02:31:43;;;;;;;22.83;3.33;;;;;;;;;;5085615;27;20180;-62
2023/04/25 02:34:09;;;;;;;5.88;1.70;;;;;;;;;;5083832;27;20040;-62
2023/04/25 02:36:35;;;;;;;9.90;1.55;;;;;;;;;;5092973;27;20055;-63
2023/04/25 02:39:02;;;;;;;9.70;1.88;;;;;;;;;;5090312;27;20036;-62
2023/04/25 02:41:29;;;;;;;10.77;1.92;;;;;;;;;;5095720;27;20045;-62
2023/04/25 02:43:55;;;;;;;8.40;2.00;;;;;;;;;;5089617;27;20048;-62
2023/04/25 02:46:21;;;;;;;8.38;1.30;;;;;;;;;;5094105;27;20116;-62
2023/04/25 02:48:47;;;;;;;9.50;1.90;;;;;;;;;;5088103;27;20051;-62
2023/04/25 02:51:16;;;;;;;13.50;2.08;;;;;;;;;;5091296;27;20095;-62
2023/04/25 02:53:42;;;;;;;6.75;1.40;;;;;;;;;;5089698;27;20044;-62
2023/04/25 02:56:08;;;;;;;14.38;2.88;;;;;;;;;;5086666;28;20040;-63
2023/04/25 02:58:34;;;;;;;17.90;2.78;;;;;;;;;;5082754;27;20429;-62
2023/04/25 03:01:00;;;;;;;11.43;1.80;;;;;;;;;;5065871;28;20370;-62
2023/04/25 03:03:26;;;;;;;11.68;1.92;;;;;;;;;;5083567;28;20097;-62
2023/04/25 03:05:53;;;;;;;12.18;2.35;;;;;;;;;;5064348;28;20105;-62
2023/04/25 03:08:19;;;;;;;9.50;1.67;;;;;;;;;;5084774;27;20490;-62
2023/04/25 03:10:46;;;;;;;12.15;2.03;;;;;;;;;;5064914;28;20048;-62
2023/04/25 03:13:12;;;;;;;13.45;2.88;;;;;;;;;;5085093;28;20321;-62
2023/04/25 03:15:39;;;;;;;14.68;2.30;;;;;;;;;;5086350;27;20085;-62
2023/04/25 03:18:06;;;;;;;13.10;2.10;;;;;;;;;;5087143;27;20461;-62
2023/04/25 03:20:32;;;;;;;9.82;1.83;;;;;;;;;;5084472;28;20044;-62
2023/04/25 03:22:58;;;;;;;10.02;2.38;;;;;;;;;;5084028;27;20044;-62
2023/04/25 03:25:24;;;;;;;12.38;2.78;;;;;;;;;;5084058;28;20048;-62
2023/04/25 03:27:50;;;;;;;17.08;2.58;;;;;;;;;;5085716;27;20058;-62
2023/04/25 03:30:16;;;;;;;14.95;3.13;;;;;;;;;;5086083;27;20043;-62
2023/04/25 03:32:42;;;;;;;16.17;3.13;;;;;;;;;;5085694;27;20379;-62
2023/04/25 03:35:09;;;;;;;26.50;4.35;;;;;;;;;;5066086;28;20126;-62
2023/04/25 03:37:35;;;;;;;17.10;3.13;;;;;;;;;;5067029;28;20478;-62
2023/04/25 03:40:02;;;;;;;16.38;2.38;;;;;;;;;;5086294;28;20516;-62
2023/04/25 03:42:28;;;;;;;22.15;3.00;;;;;;;;;;5065164;28;20175;-62
2023/04/25 03:44:54;;;;;;;20.05;2.70;;;;;;;;;;5064746;28;20047;-62
2023/04/25 03:47:20;;;;;;;17.35;3.17;;;;;;;;;;5067348;28;20179;-63
2023/04/25 03:49:46;;;;;;;19.52;2.42;;;;;;;;;;5068877;28;20127;-62
2023/04/25 03:52:12;;;;;;;12.40;2.42;;;;;;;;;;5069528;28;20052;-62
2023/04/25 03:54:39;;;;;;;20.48;2.70;;;;;;;;;;5066403;28;20052;-62
2023/04/25 03:57:05;;;;;;;12.75;2.15;;;;;;;;;;5084714;28;20506;-62
2023/04/25 03:59:31;;;;;;;20.00;2.50;;;;;;;;;;5067123;28;20122;-62
2023/04/25 04:01:57;;;;;;;10.20;2.00;;;;;;;;;;5083399;28;20052;-62
2023/04/25 04:04:23;;;;;;;13.30;3.08;;;;;;;;;;5081582;28;20450;-62
2023/04/25 04:06:50;;;;;;;12.75;2.22;;;;;;;;;;5066330;28;20086;-62
2023/04/25 04:09:16;;;;;;;14.18;2.50;;;;;;;;;;5068999;28;20055;-62
2023/04/25 04:11:42;;;;;;;16.45;2.20;;;;;;;;;;5083629;27;21359;-62
2023/04/25 04:14:10;;;;;;;13.20;2.67;;;;;;;;;;5081856;28;20055;-62
2023/04/25 04:16:36;;;;;;;12.18;2.65;;;;;;;;;;5063985;28;20036;-62
2023/04/25 04:19:03;;;;;;;15.80;2.10;;;;;;;;;;5082196;28;20111;-62
2023/04/25 04:21:29;;;;;;;13.63;2.55;;;;;;;;;;5065816;28;20075;-62
2023/04/25 04:23:57;;;;;;;13.48;2.33;;;;;;;;;;5065731;28;20161;-62
2023/04/25 04:26:24;;;;;;;17.83;3.10;;;;;;;;;;5082268;28;20052;-62
2023/04/25 04:28:51;;;;;;;12.07;2.60;;;;;;;;;;5062679;28;20445;-62
2023/04/25 04:31:19;;;;;;;10.23;2.20;;;;;;;;;;5065506;28;20487;-62
2023/04/25 04:33:45;;;;;;;19.48;3.75;;;;;;;;;;5065541;28;20044;-62
2023/04/25 04:36:12;;;;;;;9.52;2.30;;;;;;;;;;5084420;28;20071;-62
2023/04/25 04:38:40;;;;;;;17.60;3.22;;;;;;;;;;5084587;28;20044;-62
2023/04/25 04:41:06;;;;;;;11.23;1.90;;;;;;;;;;5085305;28;20067;-62
2023/04/25 04:43:33;;;;;;;9.13;2.00;;;;;;;;;;5082388;28;20044;-62
2023/04/25 04:46:01;;;;;;;9.10;1.90;;;;;;;;;;5069206;28;20069;-62
2023/04/25 04:48:28;;;;;;;9.15;2.17;;;;;;;;;;5069664;28;20043;-62
2023/04/25 04:50:54;;;;;;;10.00;2.47;;;;;;;;;;5068039;28;20044;-62
2023/04/25 04:53:20;;;;;;;11.90;2.17;;;;;;;;;;5083047;28;20079;-62
2023/04/25 04:55:46;;;;;;;14.95;3.17;;;;;;;;;;5083049;28;20407;-62
2023/04/25 04:58:12;;;;;;;11.90;1.65;;;;;;;;;;5083722;28;20510;-62
2023/04/25 05:00:40;;;;;;;11.45;1.95;;;;;;;;;;5065685;28;20417;-62
2023/04/25 05:03:06;;;;;;;19.17;2.53;;;;;;;;;;5082317;28;20040;-62
2023/04/25 05:05:32;;;;;;;15.90;2.45;;;;;;;;;;5086563;28;20044;-63
2023/04/25 05:07:58;;;;;;;15.98;2.00;;;;;;;;;;5085652;28;20047;-63
2023/04/25 05:10:25;;;;;;;13.25;2.60;;;;;;;;;;5088961;28;20058;-63
2023/04/25 05:12:51;;;;;;;14.75;2.00;;;;;;;;;;5088863;28;20052;-62
2023/04/25 05:15:17;;;;;;;14.07;2.00;;;;;;;;;;5072473;28;20052;-62
2023/04/25 05:17:43;;;;;;;16.25;2.50;;;;;;;;;;5095207;28;20258;-62
2023/04/25 05:20:10;;;;;;;10.27;1.90;;;;;;;;;;5093736;28;20052;-62
2023/04/25 05:22:36;;;;;;;14.45;2.25;;;;;;;;;;5081295;28;20078;-62
2023/04/25 05:25:03;;;;;;;15.40;2.55;;;;;;;;;;5087635;28;20139;-62
2023/04/25 05:27:29;;;;;;;8.50;2.22;;;;;;;;;;5070969;28;20396;-62
2023/04/25 05:29:55;;;;;;;14.52;2.38;;;;;;;;;;5085108;28;20174;-63
2023/04/25 05:32:22;;;;;;;12.43;2.38;;;;;;;;;;5088996;28;20163;-63
2023/04/25 05:34:48;;;;;;;9.18;1.88;;;;;;;;;;5068932;28;20099;-63
2023/04/25 05:37:14;;;;;;;21.75;2.47;;;;;;;;;;5051711;28;20467;-62
2023/04/25 05:39:40;;;;;;;11.30;1.88;;;;;;;;;;5052240;28;20079;-63
2023/04/25 05:42:06;;;;;;;7.93;1.30;;;;;;;;;;5091860;28;20127;-63
2023/04/25 05:44:32;;;;;;;11.90;2.05;;;;;;;;;;5068833;28;20212;-63
2023/04/25 05:46:58;;;;;;;5.38;1.40;;;;;;;;;;5073049;27;20047;-62
2023/04/25 05:49:25;;;;;;;8.85;1.38;;;;;;;;;;5089770;27;20044;-62
2023/04/25 05:51:51;;;;;;;10.52;1.63;;;;;;;;;;5090514;27;20048;-62
2023/04/25 05:54:17;;;;;;;9.07;1.70;;;;;;;;;;5093021;27;20047;-62
2023/04/25 05:56:43;;;;;;;18.15;2.15;;;;;;;;;;5073502;28;20052;-62
2023/04/25 05:59:09;;;;;;;13.85;2.20;;;;;;;;;;5055933;28;20517;-63
2023/04/25 06:01:36;;;;;;;6.78;1.20;;;;;;;;;;5073414;28;20075;-62
2023/04/25 06:04:02;;;;;;;5.32;1.20;;;;;;;;;;5091534;27;20036;-62
2023/04/25 06:06:28;;;;;;;4.13;1.40;;;;;;;;;;5074534;27;20052;-62
2023/04/25 06:08:55;;;;;;;9.35;1.48;;;;;;;;;;5089404;27;20509;-62
2023/04/25 06:11:21;;;;;;;11.52;1.10;;;;;;;;;;5095928;27;20134;-62
2023/04/25 06:13:47;;;;;;;8.00;1.98;;;;;;;;;;5098802;28;20160;-62
2023/04/25 06:16:13;;;;;;;12.52;2.22;;;;;;;;;;5097136;28;20051;-62
2023/04/25 06:18:39;;;;;;;9.32;1.90;;;;;;;;;;5085952;27;20039;-62
2023/04/25 06:21:06;;;;;;;11.98;2.10;;;;;;;;;;5073881;28;20178;-62
2023/04/25 06:23:32;;;;;;;13.85;1.95;;;;;;;;;;5090251;28;20032;-62
2023/04/25 06:25:58;;;;;;;10.95;2.38;;;;;;;;;;5088377;27;20101;-62
2023/04/25 06:28:24;;;;;;;8.70;1.73;;;;;;;;;;5092756;27;20116;-62
2023/04/25 06:30:51;;;;;;;7.88;1.20;;;;;;;;;;5074374;27;20050;-62
2023/04/25 06:33:17;;;;;;;17.05;3.65;;;;;;;;;;5092753;27;20063;-62
2023/04/25 06:35:43;;;;;;;9.57;1.90;;;;;;;;;;5101567;27;20372;-62
2023/04/25 06:38:09;;;;;;;9.18;1.65;;;;;;;;;;5089300;27;20490;-62
2023/04/25 06:40:35;;;;;;;14.93;2.65;;;;;;;;;;5058808;28;20127;-62
2023/04/25 06:43:02;;;;;;;10.80;1.83;;;;;;;;;;5091531;28;20118;-62
2023/04/25 06:45:28;;;;;;;9.80;1.65;;;;;;;;;;5089103;27;20344;-62
2023/04/25 06:47:54;;;;;;;11.27;1.80;;;;;;;;;;5089849;27;20058;-62
2023/04/25 06:50:20;;;;;;;11.48;2.00;;;;;;;;;;5091952;27;20398;-62
2023/04/25 06:52:46;;;;;;;9.13;1.63;;;;;;;;;;5092588;27;20091;-63
2023/04/25 06:55:12;;;;;;;8.65;1.52;;;;;;;;;;5076567;28;20044;-62
2023/04/25 06:57:38;;;;;;;4.50;0.90;;;;;;;;;;5075079;28;20621;-62
2023/04/25 07:00:08;;;;;;;5.18;1.15;;;;;;;;;;5092414;27;20043;-62
2023/04/25 07:02:34;;;;;;;8.32;1.85;;;;;;;;;;5095318;27;20124;-62
2023/04/25 07:05:00;;;;;;;7.97;1.10;;;;;;;;;;5099272;27;20168;-62
2023/04/25 07:07:27;;;;;;;6.15;1.23;;;;;;;;;;5096456;27;20532;-62
2023/04/25 07:09:53;;;;;;;8.02;1.58;;;;;;;;;;5096820;27;20040;-62
2023/04/25 07:12:19;;;;;;;7.40;1.45;;;;;;;;;;5096453;27;20039;-62
2023/04/25 07:14:45;;;;;;;6.72;1.60;;;;;;;;;;5088282;27;20078;-62
2023/04/25 07:17:12;;;;;;;11.35;2.17;;;;;;;;;;5097823;27;20116;-62
2023/04/25 07:19:39;;;;;;;9.27;2.25;;;;;;;;;;5076845;28;20044;-62
2023/04/25 07:22:06;;;;;;;10.95;1.90;;;;;;;;;;5094149;27;20093;-62
2023/04/25 07:24:32;;;;;;;9.43;2.20;;;;;;;;;;5091302;28;20055;-62
2023/04/25 07:26:58;;;;;;;14.07;2.35;;;;;;;;;;5089942;27;20165;-62
2023/04/25 07:29:25;;;;;;;6.97;1.75;;;;;;;;;;5075363;28;20044;-62
2023/04/25 07:31:51;;;;;;;16.23;1.85;;;;;;;;;;5076023;28;20105;-62
2023/04/25 07:34:17;;;;;;;11.85;2.45;;;;;;;;;;5089369;28;20444;-62
2023/04/25 07:36:44;;;;;;;11.13;1.77;;;;;;;;;;5087953;27;20036;-62
2023/04/25 07:39:10;;;;;;;11.40;2.08;;;;;;;;;;5089683;28;20062;-62
2023/04/25 07:41:37;;;;;;;13.88;2.00;;;;;;;;;;5089498;28;20052;-62
2023/04/25 07:44:03;;;;;;;10.23;1.85;;;;;;;;;;5088651;27;20046;-62
2023/04/25 07:46:29;;;;;;;10.90;1.92;;;;;;;;;;5086763;27;20067;-62
2023/04/25 07:48:55;;;;;;;16.20;2.45;;;;;;;;;;5092022;27;20044;-62
2023/04/25 07:51:22;;;;;;;18.35;2.17;;;;;;;;;;5074675;28;20563;-62
2023/04/25 07:53:48;;;;;;;12.27;1.85;;;;;;;;;;5074366;28;20044;-62
2023/04/25 07:56:14;;;;;;;13.80;1.50;;;;;;;;;;5070089;28;20145;-62
2023/04/25 07:58:40;;;;;;;10.35;1.50;;;;;;;;;;5091117;27;20055;-62
2023/04/25 08:01:06;;;;;;;7.70;2.17;;;;;;;;;;5071720;28;20048;-62
2023/04/25 08:03:32;;;;;;;7.53;1.67;;;;;;;;;;5090274;27;20075;-63
2023/04/25 08:05:58;;;;;;;11.63;1.48;;;;;;;;;;5094166;27;20410;-65
2023/04/25 08:08:25;;;;;;;6.50;1.23;;;;;;;;;;5091464;27;20059;-62
2023/04/25 08:10:51;;;;;;;8.05;1.35;;;;;;;;;;5087956;28;20044;-62
2023/04/25 08:13:17;;;;;;;7.53;1.30;;;;;;;;;;5091288;27;20068;-62
2023/04/25 08:15:43;;;;;;;6.85;1.65;;;;;;;;;;5071789;28;20170;-62
2023/04/25 08:18:09;;;;;;;7.65;1.15;;;;;;;;;;5070072;28;20040;-61
2023/04/25 08:20:35;;;;;;;9.60;1.52;;;;;;;;;;5086093;27;20044;-64
2023/04/25 08:23:01;;;;;;;11.27;1.60;;;;;;;;;;5075630;28;20035;-62
2023/04/25 08:25:28;;;;;;;12.10;2.03;;;;;;;;;;5075458;28;20052;-62
2023/04/25 08:27:55;;;;;;;13.50;2.83;;;;;;;;;;5094348;27;20052;-61
2023/04/25 08:30:22;;;;;;;12.80;2.28;;;;;;;;;;5090971;27;20083;-61
2023/04/25 08:32:48;;;;;;;8.45;1.45;;;;;;;;;;5087361;28;20594;-62
2023/04/25 08:35:14;;;;;;;16.35;2.47;;;;;;;;;;5089699;28;20571;-61
2023/04/25 08:37:41;;;;;;;12.80;1.70;;;;;;;;;;5091591;28;20054;-62
2023/04/25 08:40:10;;;;;;;13.85;1.95;;;;;;;;;;5072737;28;20052;-62
2023/04/25 08:42:37;;;;;;;13.55;2.45;;;;;;;;;;5100391;28;20039;-62
2023/04/25 08:45:04;;;;;;;12.73;2.03;;;;;;;;;;5083423;28;20147;-62
2023/04/25 08:47:34;;;;;;;17.67;3.03;;;;;;;;;;5098494;28;20402;-62
2023/04/25 08:50:00;;;;;;;10.93;2.00;;;;;;;;;;5080670;28;20053;-62
2023/04/25 08:52:28;;;;;;;8.68;1.75;;;;;;;;;;5081115;28;20046;-62
2023/04/25 08:54:55;;;;;;;8.77;1.90;;;;;;;;;;5077954;28;20071;-62
2023/04/25 08:57:21;;;;;;;16.10;2.38;;;;;;;;;;5084288;28;20087;-62
2023/04/25 08:59:48;;;;;;;10.25;1.73;;;;;;;;;;5095612;28;20108;-62
2023/04/25 09:02:16;;;;;;;14.35;2.35;;;;;;;;;;5076373;28;20040;-62
2023/04/25 09:04:44;;;;;;;10.15;1.83;;;;;;;;;;5092373;28;20094;-61
2023/04/25 09:07:10;;;;;;;10.25;2.10;;;;;;;;;;5093808;28;20565;-62
2023/04/25 09:09:37;;;;;;;11.93;2.28;;;;;;;;;;5094590;28;20328;-62
2023/04/25 09:12:03;;;;;;;8.23;1.50;;;;;;;;;;5097030;28;20040;-62
2023/04/25 09:14:29;;;;;;;12.32;2.17;;;;;;;;;;5090158;28;20113;-63
2023/04/25 09:16:56;;;;;;;12.35;2.03;;;;;;;;;;5074283;28;20051;-63
2023/04/25 09:19:22;;;;;;;22.33;2.88;;;;;;;;;;5093242;28;21476;-62
2023/04/25 09:21:50;;;;;;;6.82;1.17;;;;;;;;;;5074074;28;20048;-62
2023/04/25 09:24:16;;;;;;;12.30;1.90;;;;;;;;;;5092830;27;20429;-62
2023/04/25 09:26:43;;;;;;;10.10;2.30;;;;;;;;;;5073137;27;20575;-62
2023/04/25 09:29:10;;;;;;;8.27;1.85;;;;;;;;;;5095003;27;20054;-62
2023/04/25 09:31:36;;;;;;;7.30;2.03;;;;;;;;;;5077361;28;20475;-62
2023/04/25 09:34:03;;;;;;;11.50;2.10;;;;;;;;;;5095283;27;20066;-63
2023/04/25 09:36:30;;;;;;;10.60;1.85;;;;;;;;;;5096258;27;20036;-62
2023/04/25 09:38:56;;;;;;;17.55;3.25;;;;;;;;;;5076605;28;20083;-62
2023/04/25 09:41:24;;;;;;;13.18;2.50;;;;;;;;;;5094310;27;20127;-63
2023/04/25 09:43:50;;;;;;;12.68;2.38;;;;;;;;;;5094955;27;20043;-63
2023/04/25 09:46:18;;;;;;;21.55;2.53;;;;;;;;;;5096553;27;20075;-63
2023/04/25 09:48:50;;;;;;;10.60;2.00;;;;;;;;;;5092670;27;20530;-62
2023/04/25 09:51:16;;;;;;;10.48;2.22;;;;;;;;;;5093524;27;20048;-62
2023/04/25 09:53:43;;;;;;;12.00;2.25;;;;;;;;;;5073895;28;20120;-62
2023/04/25 09:56:10;;;;;;;9.35;1.77;;;;;;;;;;5081604;28;20122;-62
2023/04/25 09:58:37;;;;;;;9.77;2.20;;;;;;;;;;5093778;27;20039;-62
2023/04/25 10:01:06;;;;;;;13.23;3.10;;;;;;;;;;5098021;28;20059;-62
2023/04/25 10:03:33;;;;;;;9.77;2.03;;;;;;;;;;5093763;27;20422;-63
2023/04/25 10:06:00;;;;;;;14.10;2.65;;;;;;;;;;5099234;27;20038;-62
2023/04/25 10:08:31;;;;;;;14.00;2.45;;;;;;;;;;5100226;27;20052;-62
2023/04/25 10:10:59;;;;;;;10.75;2.03;;;;;;;;;;5094422;27;20047;-63
2023/04/25 10:13:25;;;;;;;7.65;1.83;;;;;;;;;;5095632;27;20125;-63
2023/04/25 10:16:11;;;;;;;10.82;2.97;;;;;;;;;;5104619;27;20643;-63
2023/04/25 10:18:37;;;;;;;22.60;2.35;;;;;;;;;;5082053;28;20121;-63
2023/04/25 10:21:05;;;;;;;12.98;2.58;;;;;;;;;;5099420;27;20074;-62
2023/04/25 10:23:31;;;;;;;19.48;2.85;;;;;;;;;;5075901;28;20047;-62
2023/04/25 10:25:59;;;;;;;15.68;2.75;;;;;;;;;;5095624;27;20051;-62
2023/04/25 10:28:26;;;;;;;13.32;1.60;;;;;;;;;;5095661;27;20086;-62
2023/04/25 10:30:58;;;;;;;9.88;1.75;;;;;;;;;;5091012;27;20565;-62
2023/04/25 10:35:58;;;;;;;11.73;1.90;;;;;;;;;;5085650;28;20044;-62
2023/04/25 10:38:26;;;;;;;10.05;1.80;;;;;;;;;;5103667;27;20061;-62
2023/04/25 10:41:08;;;;;;;9.43;1.80;;;;;;;;;;5100446;27;20392;-62
2023/04/25 10:43:39;;;;;;;7.35;2.10;;;;;;;;;;5098999;27;20068;-63
2023/04/25 10:46:24;;;;;;;7.15;1.35;;;;;;;;;;5097104;28;20411;-63
2023/04/25 10:48:52;;;;;;;7.40;1.45;;;;;;;;;;5076422;28;20071;-73
2023/04/25 10:51:18;;;;;;;9.00;1.75;;;;;;;;;;5078521;28;20043;-63
2023/04/25 10:53:45;;;;;;;11.75;1.92;;;;;;;;;;5097200;27;20048;-63
2023/04/25 10:56:12;;;;;;;6.28;1.20;;;;;;;;;;5080381;28;20509;-62
2023/04/25 10:58:42;;;;;;;9.40;2.17;;;;;;;;;;5096943;28;20048;-62
2023/04/25 11:01:08;;;;;;;8.75;1.70;;;;;;;;;;5081606;28;20751;-62
2023/04/25 11:03:39;;;;;;;7.22;1.65;;;;;;;;;;5099996;28;20123;-62
2023/04/25 11:06:06;;;;;;;10.85;1.67;;;;;;;;;;5098556;28;20055;-62
2023/04/25 11:08:43;;;;;;;11.52;2.72;;;;;;;;;;5072220;28;20048;-62
2023/04/25 11:11:10;;;;;;;11.73;1.92;;;;;;;;;;5092317;28;20086;-63
2023/04/25 11:13:36;;;;;;;9.90;2.15;;;;;;;;;;5096765;28;20492;-62
2023/04/25 11:16:02;;;;;;;10.57;1.77;;;;;;;;;;5074274;28;20052;-62
2023/04/25 11:18:28;;;;;;;9.90;1.80;;;;;;;;;;5105274;27;20114;-62
2023/04/25 11:20:54;;;;;;;8.20;1.85;;;;;;;;;;5093958;27;20057;-62
2023/04/25 11:23:20;;;;;;;6.15;1.25;;;;;;;;;;5093134;28;20036;-62
2023/04/25 11:25:46;;;;;;;5.32;1.27;;;;;;;;;;5076645;28;20131;-62
2023/04/25 11:28:13;;;;;;;12.73;2.25;;;;;;;;;;5095743;27;20051;-62
2023/04/25 11:30:39;;;;;;;9.40;1.73;;;;;;;;;;5097965;28;20371;-62
2023/04/25 11:33:05;;;;;;;13.55;1.75;;;;;;;;;;5096133;28;20356;-62
2023/04/25 11:35:33;;;;;;;8.80;1.23;;;;;;;;;;5095383;27;20080;-62
2023/04/25 11:37:59;;;;;;;7.43;1.98;;;;;;;;;;5094132;27;20108;-62
2023/04/25 11:40:25;;;;;;;12.60;2.58;;;;;;;;;;5093281;27;20460;-62
2023/04/25 11:42:51;;;;;;;7.57;1.50;;;;;;;;;;5089616;27;20482;-62
2023/04/25 11:45:18;;;;;;;11.27;1.85;;;;;;;;;;5092604;27;20075;-62
2023/04/25 11:47:44;;;;;;;10.20;1.95;;;;;;;;;;5082424;28;20052;-62
2023/04/25 11:50:11;;;;;;;12.48;1.70;;;;;;;;;;5096835;27;20035;-62
2023/04/25 11:52:39;;;;;;;10.13;1.90;;;;;;;;;;5085679;28;20434;-62
2023/04/25 11:55:07;;;;;;;11.27;2.03;;;;;;;;;;5100586;28;21562;-62
2023/04/25 11:57:33;;;;;;;11.20;2.30;;;;;;;;;;5098730;27;20042;-62
2023/04/25 12:00:07;;;;;;;13.05;2.67;;;;;;;;;;5079811;28;20048;-62
2023/04/25 12:02:35;;;;;;;12.05;1.92;;;;;;;;;;5098869;28;20092;-62
2023/04/25 12:05:03;;;;;;;11.52;3.10;;;;;;;;;;5094607;27;20509;-62
2023/04/25 12:07:30;;;;;;;13.23;2.50;;;;;;;;;;5058785;28;20048;-62
2023/04/25 12:09:56;;;;;;;13.45;2.67;;;;;;;;;;5092798;27;20036;-62
2023/04/25 12:12:22;;;;;;;11.75;2.17;;;;;;;;;;5072286;28;20980;-64
2023/04/25 12:14:48;;;;;;;10.70;2.05;;;;;;;;;;5056360;28;20048;-63
2023/04/25 12:17:15;;;;;;;11.73;1.98;;;;;;;;;;5088975;28;20085;-62
2023/04/25 12:19:41;;;;;;;12.13;1.92;;;;;;;;;;5092040;27;20051;-62
2023/04/25 12:22:23;;;;;;;8.18;1.35;;;;;;;;;;5094731;27;20097;-63
2023/04/25 12:24:49;;;;;;;6.22;1.80;;;;;;;;;;5094040;27;20466;-63
2023/04/25 12:27:18;;;;;;;13.18;2.38;;;;;;;;;;5093071;28;20089;-63
2023/04/25 12:29:51;;;;;;;9.57;1.80;;;;;;;;;;5092656;27;21446;-63
2023/04/25 12:32:17;;;;;;;7.07;2.28;;;;;;;;;;5088174;27;20140;-63
2023/04/25 12:34:44;;;;;;;8.88;2.28;;;;;;;;;;5090515;28;20041;-62
2023/04/25 12:37:11;;;;;;;16.67;2.45;;;;;;;;;;5059254;28;20040;-62
2023/04/25 12:39:37;;;;;;;11.90;1.88;;;;;;;;;;5087243;28;20055;-63
2023/04/25 12:42:04;;;;;;;10.07;1.75;;;;;;;;;;5090061;28;20043;-62
2023/04/25 12:44:30;;;;;;;6.97;1.60;;;;;;;;;;5074240;28;20051;-63
2023/04/25 12:46:56;;;;;;;9.25;1.85;;;;;;;;;;5092965;28;20430;-63
2023/04/25 12:49:23;;;;;;;6.15;1.70;;;;;;;;;;5095417;28;20031;-63
2023/04/25 12:51:49;;;;;;;6.55;1.23;;;;;;;;;;5069391;28;20044;-63
2023/04/25 12:54:15;;;;;;;9.40;2.10;;;;;;;;;;5101454;27;20052;-63
2023/04/25 12:56:42;;;;;;;15.18;2.40;;;;;;;;;;5081199;28;20044;-63
2023/04/25 12:59:09;;;;;;;11.23;1.70;;;;;;;;;;5075454;28;20479;-62
2023/04/25 13:01:35;;;;;;;11.20;2.40;;;;;;;;;;5101258;27;20044;-63
2023/04/25 13:04:01;;;;;;;9.50;1.95;;;;;;;;;;5099719;27;20983;-63
2023/04/25 13:06:29;;;;;;;8.85;2.10;;;;;;;;;;5093137;27;20040;-72
2023/04/25 13:08:55;;;;;;;8.18;1.90;;;;;;;;;;5082995;28;20122;-63
2023/04/25 13:11:22;;;;;;;9.77;1.63;;;;;;;;;;5096506;27;20035;-63
2023/04/25 13:13:48;;;;;;;9.80;1.50;;;;;;;;;;5093030;27;20044;-63
2023/04/25 13:16:14;;;;;;;14.20;2.28;;;;;;;;;;5094967;28;20123;-63
2023/04/25 13:18:40;;;;;;;10.55;1.92;;;;;;;;;;5095026;27;20043;-63
2023/04/25 13:21:07;;;;;;;9.05;2.65;;;;;;;;;;5084178;28;20152;-63
2023/04/25 13:23:33;;;;;;;8.10;1.88;;;;;;;;;;5098509;28;20055;-63
2023/04/25 13:26:01;;;;;;;9.40;2.35;;;;;;;;;;5094265;28;20052;-63
2023/04/25 13:28:27;;;;;;;15.35;2.75;;;;;;;;;;5098380;27;20402;-63
2023/04/25 13:30:54;;;;;;;15.15;2.75;;;;;;;;;;5101551;27;20047;-63
2023/04/25 13:33:20;;;;;;;13.65;2.17;;;;;;;;;;5103585;27;20047;-63
2023/04/25 13:35:53;;;;;;;14.35;2.63;;;;;;;;;;5076781;28;20097;-63
2023/04/25 13:38:20;;;;;;;13.00;3.15;;;;;;;;;;5099560;27;20500;-63
2023/04/25 13:40:46;;;;;;;9.52;2.25;;;;;;;;;;5105407;27;20383;-63
2023/04/25 13:43:12;;;;;;;8.95;1.90;;;;;;;;;;5103361;27;20042;-63
2023/04/25 13:45:38;;;;;;;8.93;1.90;;;;;;;;;;5094208;27;20044;-62
2023/04/25 13:48:04;;;;;;;9.32;1.85;;;;;;;;;;5102788;27;20501;-62
2023/04/25 13:50:31;;;;;;;5.50;1.15;;;;;;;;;;5099132;27;20148;-74
2023/04/25 13:52:57;;;;;;;6.93;1.38;;;;;;;;;;5100152;27;20049;-62
2023/04/25 13:55:23;;;;;;;5.07;1.48;;;;;;;;;;5091505;28;20136;-63
2023/04/25 13:57:50;;;;;;;6.75;1.33;;;;;;;;;;5074339;28;20499;-63
2023/04/25 14:00:16;;;;;;;7.25;1.27;;;;;;;;;;5092314;27;20456;-67
2023/04/25 14:02:42;;;;;;;5.40;1.50;;;;;;;;;;5077507;28;20043;-63
2023/04/25 14:05:09;;;;;;;7.40;1.20;;;;;;;;;;5073864;28;20054;-63
2023/04/25 14:07:35;;;;;;;10.82;1.13;;;;;;;;;;5092669;27;20452;-63
2023/04/25 14:10:02;;;;;;;7.80;1.50;;;;;;;;;;5095663;27;20048;-65
2023/04/25 14:12:28;;;;;;;7.25;1.40;;;;;;;;;;5075940;27;20097;-65
2023/04/25 14:14:54;;;;;;;11.88;1.60;;;;;;;;;;5073144;28;20129;-64
2023/04/25 14:17:20;;;;;;;7.15;1.70;;;;;;;;;;5089524;28;20044;-62
2023/04/25 14:19:47;;;;;;;9.63;1.92;;;;;;;;;;5092858;27;20491;-63
2023/04/25 14:22:15;;;;;;;8.10;2.03;;;;;;;;;;5094382;27;20050;-63
2023/04/25 14:24:41;;;;;;;13.32;2.78;;;;;;;;;;5096693;27;20063;-62
2023/04/25 14:27:08;;;;;;;11.98;1.85;;;;;;;;;;5097068;27;20056;-62
2023/04/25 14:29:34;;;;;;;11.68;2.13;;;;;;;;;;5098722;27;20403;-62
2023/04/25 14:32:00;;;;;;;9.77;1.70;;;;;;;;;;5090796;28;20039;-62